createdAt,value
2018-07-28T00:01:37.894Z,4.53
2018-07-28T00:04:06.371Z,4.63
2018-07-28T00:06:34.979Z,4.67
2018-07-28T00:09:04.225Z,4.50
2018-07-28T00:11:32.387Z,4.23
2018-07-28T00:14:01.945Z,4.77
2018-07-28T00:16:30.521Z,4.70
2018-07-28T00:18:59.025Z,4.83
2018-07-28T00:21:27.565Z,4.80
2018-07-28T00:23:56.252Z,5.37
2018-07-28T00:26:24.834Z,4.70
2018-07-28T00:28:53.399Z,4.93
2018-07-28T00:31:21.868Z,4.57
2018-07-28T00:33:50.325Z,5.10
2018-07-28T00:36:18.820Z,4.77
2018-07-28T00:38:47.389Z,5.30
2018-07-28T00:41:15.856Z,4.63
2018-07-28T00:43:44.507Z,4.70
2018-07-28T00:46:12.964Z,4.90
2018-07-28T00:48:41.473Z,5.10
2018-07-28T00:51:09.940Z,4.60
2018-07-28T00:53:38.387Z,4.93
2018-07-28T00:56:06.958Z,5.00
2018-07-28T00:58:35.395Z,5.10
2018-07-28T01:01:04.003Z,4.20
2018-07-28T01:03:32.457Z,4.70
2018-07-28T01:06:00.958Z,4.53
2018-07-28T01:08:29.415Z,4.10
2018-07-28T01:10:57.871Z,4.20
2018-07-28T01:13:26.535Z,4.20
2018-07-28T01:15:55.197Z,4.17
2018-07-28T01:18:23.740Z,3.90
2018-07-28T01:20:52.256Z,4.23
2018-07-28T01:23:20.790Z,4.20
2018-07-28T01:25:49.245Z,4.17
2018-07-28T01:28:17.807Z,4.10
2018-07-28T01:30:46.236Z,3.87
2018-07-28T01:33:14.712Z,4.17
2018-07-28T01:35:43.260Z,4.47
2018-07-28T01:38:11.408Z,4.40
2018-07-28T01:40:39.848Z,4.33
2018-07-28T01:43:08.466Z,4.27
2018-07-28T01:45:36.913Z,3.97
2018-07-28T01:48:05.492Z,4.00
2018-07-28T01:50:34.036Z,4.30
2018-07-28T01:53:02.505Z,4.53
2018-07-28T01:55:31.064Z,4.20
2018-07-28T01:57:59.613Z,4.37
2018-07-28T02:00:28.083Z,4.33
2018-07-28T02:02:56.630Z,4.40
2018-07-28T02:05:25.228Z,4.30
2018-07-28T02:07:53.734Z,4.20
2018-07-28T02:10:22.186Z,4.10
2018-07-28T02:12:50.824Z,4.27
2018-07-28T02:15:19.384Z,4.30
2018-07-28T02:17:47.971Z,4.20
2018-07-28T02:20:16.464Z,4.23
2018-07-28T02:22:45.060Z,4.10
2018-07-28T02:25:13.520Z,4.17
2018-07-28T02:27:42.083Z,4.37
2018-07-28T02:30:10.202Z,4.20
2018-07-28T02:32:38.656Z,3.93
2018-07-28T02:35:07.883Z,4.03
2018-07-28T02:37:36.342Z,4.33
2018-07-28T02:40:05.870Z,4.90
2018-07-28T02:42:34.399Z,4.10
2018-07-28T02:45:02.910Z,4.47
2018-07-28T02:47:31.057Z,4.80
2018-07-28T02:49:59.505Z,4.50
2018-07-28T02:52:27.963Z,4.60
2018-07-28T02:54:56.540Z,4.57
2018-07-28T02:57:25.114Z,4.57
2018-07-28T02:59:53.542Z,4.63
2018-07-28T03:02:21.978Z,4.50
2018-07-28T03:04:50.493Z,4.53
2018-07-28T03:07:18.943Z,4.47
2018-07-28T03:09:47.081Z,4.70
2018-07-28T03:12:15.571Z,4.97
2018-07-28T03:14:44.212Z,4.40
2018-07-28T03:17:12.668Z,4.37
2018-07-28T03:19:41.240Z,4.43
2018-07-28T03:22:09.722Z,4.90
2018-07-28T03:24:38.162Z,4.40
2018-07-28T03:27:07.023Z,4.33
2018-07-28T03:29:36.003Z,4.90
2018-07-28T03:32:05.006Z,5.13
2018-07-28T03:34:33.497Z,4.90
2018-07-28T03:37:01.948Z,5.07
2018-07-28T03:39:30.390Z,4.97
2018-07-28T03:41:58.847Z,5.17
2018-07-28T03:44:27.477Z,5.10
2018-07-28T03:46:55.967Z,4.73
2018-07-28T03:49:24.621Z,4.70
2018-07-28T03:51:52.989Z,4.73
2018-07-28T03:54:21.539Z,4.23
2018-07-28T03:56:50.018Z,4.80
2018-07-28T03:59:18.457Z,5.10
2018-07-28T04:01:46.917Z,4.80
2018-07-28T04:04:15.421Z,5.30
2018-07-28T04:06:43.509Z,4.97
2018-07-28T04:09:11.987Z,4.97
2018-07-28T04:11:40.493Z,4.63
2018-07-28T04:14:08.941Z,5.20
2018-07-28T04:16:37.403Z,4.90
2018-07-28T04:19:06.115Z,5.60
2018-07-28T04:21:34.649Z,5.67
2018-07-28T04:24:03.144Z,5.80
2018-07-28T04:26:31.617Z,5.40
2018-07-28T04:28:59.852Z,5.93
2018-07-28T04:31:28.340Z,5.77
2018-07-28T04:33:56.841Z,5.70
2018-07-28T04:36:25.339Z,6.07
2018-07-28T04:38:53.783Z,6.70
2018-07-28T04:41:22.248Z,6.40
2018-07-28T04:43:50.913Z,6.47
2018-07-28T04:46:19.362Z,6.83
2018-07-28T04:48:47.828Z,6.17
2018-07-28T04:51:16.278Z,6.33
2018-07-28T04:53:44.716Z,6.57
2018-07-28T04:56:13.150Z,7.13
2018-07-28T04:58:41.657Z,7.23
2018-07-28T05:01:09.788Z,7.20
2018-07-28T05:03:38.364Z,6.90
2018-07-28T05:06:06.814Z,7.33
2018-07-28T05:08:35.370Z,7.13
2018-07-28T05:11:03.912Z,6.53
2018-07-28T05:13:32.379Z,7.07
2018-07-28T05:16:00.978Z,7.97
2018-07-28T05:18:29.432Z,7.20
2018-07-28T05:20:57.982Z,7.57
2018-07-28T05:23:26.548Z,7.93
2018-07-28T05:25:55.106Z,6.87
2018-07-28T05:28:23.536Z,6.87
2018-07-28T05:30:52.246Z,7.77
2018-07-28T05:33:20.858Z,7.50
2018-07-28T05:35:49.290Z,7.30
2018-07-28T05:38:17.726Z,7.80
2018-07-28T05:40:46.278Z,7.50
2018-07-28T05:43:14.718Z,7.47
2018-07-28T05:45:43.206Z,7.10
2018-07-28T05:48:11.757Z,7.47
2018-07-28T05:50:40.228Z,7.30
2018-07-28T05:53:08.840Z,7.00
2018-07-28T05:55:38.330Z,7.03
2018-07-28T05:58:06.874Z,8.10
2018-07-28T06:00:35.412Z,7.60
2018-07-28T06:03:07.042Z,7.23
2018-07-28T06:05:36.944Z,6.77
2018-07-28T06:08:06.266Z,7.57
2018-07-28T06:10:34.733Z,7.63
2018-07-28T06:13:03.213Z,8.13
2018-07-28T06:15:31.668Z,8.90
2018-07-28T06:17:59.813Z,8.83
2018-07-28T06:20:28.262Z,8.00
2018-07-28T06:22:56.690Z,7.60
2018-07-28T06:25:25.138Z,7.30
2018-07-28T06:27:53.603Z,7.97
2018-07-28T06:30:22.033Z,8.10
2018-07-28T06:32:50.589Z,8.60
2018-07-28T06:35:19.057Z,7.63
2018-07-28T06:37:47.623Z,8.67
2018-07-28T06:40:16.112Z,9.17
2018-07-28T06:42:44.675Z,9.53
2018-07-28T06:45:13.234Z,9.67
2018-07-28T06:47:41.707Z,9.03
2018-07-28T06:50:10.346Z,9.47
2018-07-28T06:52:38.845Z,9.60
2018-07-28T06:55:07.429Z,9.57
2018-07-28T06:57:36.131Z,10.90
2018-07-28T07:00:06.668Z,10.10
2018-07-28T07:02:35.125Z,9.87
2018-07-28T07:05:04.146Z,9.90
2018-07-28T07:07:32.776Z,9.70
2018-07-28T07:10:01.240Z,9.40
2018-07-28T07:12:29.460Z,9.87
2018-07-28T07:14:57.949Z,9.90
2018-07-28T07:17:26.406Z,9.83
2018-07-28T07:19:54.990Z,11.53
2018-07-28T07:22:23.441Z,10.93
2018-07-28T07:24:51.926Z,11.43
2018-07-28T07:27:20.122Z,11.43
2018-07-28T07:29:48.264Z,11.27
2018-07-28T07:32:16.807Z,11.70
2018-07-28T07:34:45.249Z,12.03
2018-07-28T07:37:15.424Z,12.27
2018-07-28T07:39:45.115Z,11.23
2018-07-28T07:42:13.654Z,11.50
2018-07-28T07:44:42.159Z,11.87
2018-07-28T07:47:10.415Z,11.23
2018-07-28T07:49:39.111Z,11.13
2018-07-28T07:52:07.632Z,11.27
2018-07-28T07:54:36.525Z,11.33
2018-07-28T07:57:05.323Z,10.73
2018-07-28T07:59:33.877Z,10.10
2018-07-28T08:02:02.807Z,11.23
2018-07-28T08:04:31.315Z,10.67
2018-07-28T08:06:59.843Z,10.03
2018-07-28T08:09:30.179Z,10.20
2018-07-28T08:11:58.767Z,10.00
2018-07-28T08:14:29.425Z,10.47
2018-07-28T08:16:58.201Z,10.73
2018-07-28T08:19:26.701Z,10.80
2018-07-28T08:21:55.301Z,11.97
2018-07-28T08:24:23.814Z,11.60
2018-07-28T08:26:52.367Z,11.43
2018-07-28T08:29:20.849Z,12.07
2018-07-28T08:31:49.293Z,11.13
2018-07-28T08:34:17.753Z,9.57
2018-07-28T08:36:46.241Z,9.80
2018-07-28T08:39:15.484Z,10.10
2018-07-28T08:41:45.079Z,9.57
2018-07-28T08:44:14.673Z,8.93
2018-07-28T08:46:43.177Z,9.10
2018-07-28T08:49:11.805Z,9.57
2018-07-28T08:51:40.224Z,8.77
2018-07-28T08:54:08.799Z,9.33
2018-07-28T08:56:37.410Z,9.23
2018-07-28T08:59:05.923Z,9.10
2018-07-28T09:01:34.398Z,9.03
2018-07-28T09:04:02.946Z,7.47
2018-07-28T09:06:31.553Z,8.23
2018-07-28T09:08:59.991Z,7.83
2018-07-28T09:11:28.129Z,7.97
2018-07-28T09:13:56.773Z,7.37
2018-07-28T09:16:25.459Z,7.23
2018-07-28T09:18:54.108Z,6.90
2018-07-28T09:21:22.725Z,6.60
2018-07-28T09:23:51.297Z,6.07
2018-07-28T09:26:20.002Z,6.03
2018-07-28T09:28:48.582Z,6.10
2018-07-28T09:31:17.032Z,6.53
2018-07-28T09:33:45.512Z,6.37
2018-07-28T09:36:14.024Z,5.60
2018-07-28T09:38:42.442Z,6.13
2018-07-28T09:41:10.913Z,5.53
2018-07-28T09:43:39.376Z,4.83
2018-07-28T09:46:07.943Z,4.77
2018-07-28T09:48:36.372Z,5.30
2018-07-28T09:51:04.958Z,5.03
2018-07-28T09:53:33.613Z,5.77
2018-07-28T09:56:02.084Z,6.20
2018-07-28T09:58:30.556Z,6.13
2018-07-28T10:00:59.097Z,5.73
2018-07-28T10:03:28.844Z,6.17
2018-07-28T10:05:57.701Z,5.40
2018-07-28T10:08:26.246Z,4.77
2018-07-28T10:10:54.799Z,4.90
2018-07-28T10:13:23.238Z,4.77
2018-07-28T10:15:51.702Z,4.40
2018-07-28T10:18:20.164Z,4.83
2018-07-28T10:20:48.729Z,4.90
2018-07-28T10:23:16.940Z,4.93
2018-07-28T10:25:45.511Z,4.87
2018-07-28T10:28:14.024Z,4.83
2018-07-28T10:30:42.472Z,4.93
2018-07-28T10:33:11.045Z,4.87
2018-07-28T10:35:39.612Z,4.80
2018-07-28T10:38:08.044Z,4.47
2018-07-28T10:40:36.617Z,4.67
2018-07-28T10:43:05.360Z,4.80
2018-07-28T10:45:33.830Z,4.80
2018-07-28T10:48:02.271Z,4.03
2018-07-28T10:50:30.821Z,4.70
2018-07-28T10:52:59.481Z,4.50
2018-07-28T10:55:27.962Z,4.40
2018-07-28T10:57:56.437Z,4.20
2018-07-28T11:00:25.101Z,4.00
2018-07-28T11:02:53.591Z,3.70
2018-07-28T11:05:22.083Z,3.63
2018-07-28T11:07:50.561Z,3.67
2018-07-28T11:10:19.059Z,3.67
2018-07-28T11:12:47.589Z,3.57
2018-07-28T11:15:16.215Z,4.10
2018-07-28T11:17:44.831Z,4.30
2018-07-28T11:20:13.284Z,4.93
2018-07-28T11:22:41.904Z,5.00
2018-07-28T11:25:10.058Z,4.80
2018-07-28T11:27:38.812Z,4.93
2018-07-28T11:30:07.981Z,5.83
2018-07-28T11:32:47.975Z,6.50
2018-07-28T11:35:27.705Z,6.50
2018-07-28T11:38:08.274Z,6.60
2018-07-28T11:40:48.046Z,5.90
2018-07-28T11:43:27.669Z,6.33
2018-07-28T11:45:56.187Z,5.70
2018-07-28T11:48:24.622Z,6.70
2018-07-28T11:50:53.207Z,6.17
2018-07-28T11:53:21.712Z,5.00
2018-07-28T11:55:50.238Z,3.97
2018-07-28T11:58:18.478Z,3.60
2018-07-28T12:00:46.552Z,3.53
2018-07-28T12:03:15.081Z,3.03
2018-07-28T12:05:43.288Z,3.30
2018-07-28T12:08:11.750Z,2.70
2018-07-28T12:10:40.247Z,2.73
2018-07-28T12:13:08.760Z,3.20
2018-07-28T12:15:37.278Z,2.50
2018-07-28T12:18:06.024Z,2.70
2018-07-28T12:20:34.544Z,2.43
2018-07-28T12:23:03.287Z,2.50
2018-07-28T12:25:31.752Z,2.30
2018-07-28T12:28:00.216Z,2.30
2018-07-28T12:30:28.898Z,2.33
2018-07-28T12:32:57.388Z,2.30
2018-07-28T12:35:25.829Z,2.40
2018-07-28T12:37:54.344Z,2.50
2018-07-28T12:40:24.348Z,2.23
2018-07-28T12:42:52.954Z,2.30
2018-07-28T12:45:21.458Z,2.73
2018-07-28T12:47:50.010Z,2.40
2018-07-28T12:50:18.454Z,2.40
2018-07-28T12:52:47.308Z,2.53
2018-07-28T12:55:15.999Z,2.63
2018-07-28T12:57:44.696Z,2.27
2018-07-28T13:00:13.261Z,2.40
2018-07-28T13:02:41.770Z,2.20
2018-07-28T13:05:10.445Z,2.40
2018-07-28T13:07:38.911Z,2.43
2018-07-28T13:10:08.533Z,2.77
2018-07-28T13:12:37.042Z,2.60
2018-07-28T13:15:05.894Z,2.73
2018-07-28T13:17:34.680Z,3.23
2018-07-28T13:20:03.200Z,2.50
2018-07-28T13:22:31.746Z,2.67
2018-07-28T13:25:00.184Z,2.67
2018-07-28T13:27:28.674Z,3.03
2018-07-28T13:29:57.306Z,2.70
2018-07-28T13:32:25.689Z,2.90
2018-07-28T13:34:54.314Z,2.80
2018-07-28T13:37:22.744Z,2.43
2018-07-28T13:39:51.311Z,2.70
2018-07-28T13:42:19.828Z,2.70
2018-07-28T13:44:48.381Z,2.80
2018-07-28T13:47:16.845Z,3.00
2018-07-28T13:49:45.296Z,2.70
2018-07-28T13:52:13.782Z,2.70
2018-07-28T13:54:42.249Z,2.57
2018-07-28T13:57:10.931Z,2.80
2018-07-28T13:59:39.391Z,1.93
2018-07-28T14:02:07.957Z,2.57
2018-07-28T14:04:36.469Z,2.30
2018-07-28T14:07:05.124Z,2.53
2018-07-28T14:09:33.833Z,2.53
2018-07-28T14:12:02.348Z,2.23
2018-07-28T14:14:30.897Z,2.30
2018-07-28T14:16:59.437Z,2.47
2018-07-28T14:19:28.401Z,2.33
2018-07-28T14:21:56.882Z,2.90
2018-07-28T14:24:25.468Z,2.70
2018-07-28T14:26:53.997Z,2.60
2018-07-28T14:29:22.511Z,2.90
2018-07-28T14:31:51.017Z,2.90
2018-07-28T14:34:19.469Z,3.03
2018-07-28T14:36:47.903Z,2.97
2018-07-28T14:39:16.407Z,2.67
2018-07-28T14:41:44.913Z,2.93
2018-07-28T14:44:13.379Z,2.40
2018-07-28T14:46:41.887Z,2.60
2018-07-28T14:49:10.341Z,2.67
2018-07-28T14:51:38.916Z,2.40
2018-07-28T14:54:07.522Z,2.80
2018-07-28T14:56:35.998Z,2.73
2018-07-28T14:59:04.506Z,2.77
2018-07-28T15:01:33.086Z,3.00
2018-07-28T15:04:01.527Z,2.70
2018-07-28T15:06:29.979Z,3.17
2018-07-28T15:08:58.521Z,3.10
2018-07-28T15:11:27.001Z,3.00
2018-07-28T15:13:55.456Z,2.77
2018-07-28T15:16:24.050Z,2.53
2018-07-28T15:18:52.503Z,2.67
2018-07-28T15:21:20.949Z,2.87
2018-07-28T15:23:49.647Z,2.70
2018-07-28T15:26:18.131Z,3.13
2018-07-28T15:28:46.843Z,2.70
2018-07-28T15:31:15.310Z,2.80
2018-07-28T15:33:43.776Z,2.70
2018-07-28T15:36:12.236Z,2.80
2018-07-28T15:38:40.472Z,2.57
2018-07-28T15:41:09.053Z,2.60
2018-07-28T15:43:37.576Z,2.70
2018-07-28T15:46:07.362Z,2.97
2018-07-28T15:48:35.881Z,2.60
2018-07-28T15:51:04.395Z,2.93
2018-07-28T15:53:34.542Z,2.43
2018-07-28T15:56:03.251Z,2.83
2018-07-28T15:58:31.867Z,2.70
2018-07-28T16:01:00.393Z,2.90
2018-07-28T16:03:29.012Z,2.60
2018-07-28T16:05:57.762Z,2.73
2018-07-28T16:08:26.292Z,3.37
2018-07-28T16:10:54.796Z,2.83
2018-07-28T16:13:23.476Z,2.77
2018-07-28T16:15:51.927Z,2.90
2018-07-28T16:18:22.096Z,2.43
2018-07-28T16:20:50.584Z,2.63
2018-07-28T16:23:19.056Z,2.50
2018-07-28T16:25:47.492Z,3.30
2018-07-28T16:28:15.932Z,2.77
2018-07-28T16:30:44.381Z,2.73
2018-07-28T16:33:12.816Z,2.93
2018-07-28T16:35:41.264Z,2.80
2018-07-28T16:38:09.854Z,9.53
2018-07-28T16:40:38.338Z,3.00
2018-07-28T16:43:06.821Z,3.17
2018-07-28T16:45:35.308Z,2.70
2018-07-28T16:48:03.824Z,2.53
2018-07-28T16:50:32.436Z,2.57
2018-07-28T16:53:00.641Z,2.80
2018-07-28T16:55:29.234Z,2.73
2018-07-28T16:57:57.718Z,2.40
2018-07-28T17:00:26.185Z,3.30
2018-07-28T17:02:54.776Z,2.67
2018-07-28T17:05:23.411Z,2.53
2018-07-28T17:07:52.099Z,3.03
2018-07-28T17:10:20.566Z,2.77
2018-07-28T17:12:49.129Z,2.60
2018-07-28T17:15:17.597Z,2.83
2018-07-28T17:17:46.049Z,2.40
2018-07-28T17:20:14.509Z,2.60
2018-07-28T17:22:43.090Z,2.40
2018-07-28T17:25:11.524Z,2.20
2018-07-28T17:27:40.002Z,2.27
2018-07-28T17:30:08.567Z,2.50
2018-07-28T17:32:37.057Z,2.47
2018-07-28T17:35:05.569Z,2.80
2018-07-28T17:37:34.089Z,2.10
2018-07-28T17:40:02.706Z,2.53
2018-07-28T17:42:31.308Z,2.30
2018-07-28T17:44:59.862Z,2.10
2018-07-28T17:47:28.613Z,1.93
2018-07-28T17:49:57.147Z,2.37
2018-07-28T17:52:25.623Z,2.20
2018-07-28T17:54:54.164Z,2.20
2018-07-28T17:57:22.634Z,2.33
2018-07-28T17:59:51.322Z,2.30
2018-07-28T18:02:19.883Z,2.10
2018-07-28T18:04:48.386Z,2.40
2018-07-28T18:07:16.946Z,2.30
2018-07-28T18:09:45.423Z,2.07
2018-07-28T18:12:13.884Z,2.57
2018-07-28T18:14:42.460Z,2.10
2018-07-28T18:17:11.084Z,2.10
2018-07-28T18:19:39.728Z,1.80
2018-07-28T18:22:07.801Z,1.70
2018-07-28T18:24:36.031Z,1.97
2018-07-28T18:27:04.526Z,2.50
2018-07-28T18:29:32.965Z,2.33
2018-07-28T18:32:01.176Z,3.37
2018-07-28T18:34:29.641Z,2.30
2018-07-28T18:36:58.117Z,2.00
2018-07-28T18:39:26.611Z,2.17
2018-07-28T18:41:55.087Z,1.97
2018-07-28T18:44:23.572Z,2.10
2018-07-28T18:46:52.021Z,2.50
2018-07-28T18:49:20.457Z,2.17
2018-07-28T18:51:48.943Z,2.03
2018-07-28T18:54:17.554Z,2.00
2018-07-28T18:56:46.533Z,2.13
2018-07-28T18:59:15.036Z,2.13
2018-07-28T19:01:43.571Z,1.77
2018-07-28T19:04:12.248Z,2.07
2018-07-28T19:06:40.702Z,1.90
2018-07-28T19:09:14.613Z,1.87
2018-07-28T19:11:43.782Z,2.10
2018-07-28T19:14:17.516Z,2.17
2018-07-28T19:16:46.336Z,1.80
2018-07-28T19:19:16.442Z,1.97
2018-07-28T19:21:45.849Z,2.10
2018-07-28T19:24:14.426Z,1.90
2018-07-28T19:26:43.003Z,1.90
2018-07-28T19:29:16.887Z,2.33
2018-07-28T19:31:45.033Z,1.90
2018-07-28T19:34:13.595Z,2.10
2018-07-28T19:36:47.361Z,1.73
2018-07-28T19:39:15.958Z,2.10
2018-07-28T19:41:49.896Z,2.00
2018-07-28T19:44:18.496Z,2.00
2018-07-28T19:46:47.082Z,1.70
2018-07-28T19:49:15.735Z,2.00
2018-07-28T19:51:44.268Z,2.10
2018-07-28T19:54:12.757Z,1.80
2018-07-28T19:56:41.209Z,2.20
2018-07-28T19:59:09.860Z,2.13
2018-07-28T20:01:38.332Z,1.90
2018-07-28T20:04:07.086Z,1.97
2018-07-28T20:06:35.550Z,1.90
2018-07-28T20:09:05.636Z,1.90
2018-07-28T20:11:34.219Z,2.07
2018-07-28T20:14:02.764Z,2.00
2018-07-28T20:16:31.211Z,2.13
2018-07-28T20:18:59.690Z,1.97
2018-07-28T20:21:28.169Z,2.10
2018-07-28T20:23:56.644Z,1.97
2018-07-28T20:26:25.492Z,1.70
2018-07-28T20:28:53.914Z,2.47
2018-07-28T20:31:22.384Z,1.70
2018-07-28T20:33:50.861Z,2.10
2018-07-28T20:36:19.316Z,2.00
2018-07-28T20:38:48.060Z,2.10
2018-07-28T20:41:16.578Z,2.10
2018-07-28T20:43:44.971Z,1.83
2018-07-28T20:46:13.422Z,1.77
2018-07-28T20:48:41.903Z,1.87
2018-07-28T20:51:10.535Z,2.00
2018-07-28T20:53:39.005Z,1.63
2018-07-28T20:56:08.439Z,2.37
2018-07-28T20:58:38.274Z,1.90
2018-07-28T21:01:07.964Z,2.60
2018-07-28T21:03:36.873Z,1.83
2018-07-28T21:06:05.765Z,2.10
2018-07-28T21:08:34.253Z,2.07
2018-07-28T21:11:02.802Z,2.20
2018-07-28T21:13:31.106Z,2.15
2018-07-28T21:15:59.572Z,2.00
2018-07-28T21:18:28.577Z,2.00
2018-07-28T21:20:57.060Z,2.30
2018-07-28T21:23:25.621Z,2.03
2018-07-28T21:25:54.118Z,2.20
2018-07-28T21:28:22.599Z,2.17
2018-07-28T21:30:51.093Z,1.67
2018-07-28T21:33:19.722Z,1.90
2018-07-28T21:35:48.237Z,1.93
2018-07-28T21:38:16.823Z,2.13
2018-07-28T21:40:45.081Z,2.17
2018-07-28T21:43:13.713Z,2.27
2018-07-28T21:45:42.269Z,2.27
2018-07-28T21:48:10.983Z,2.13
2018-07-28T21:50:39.415Z,1.67
2018-07-28T21:53:07.917Z,2.30
2018-07-28T21:55:36.617Z,2.20
2018-07-28T21:58:05.187Z,2.43
2018-07-28T22:00:38.849Z,2.23
2018-07-28T22:03:07.729Z,2.20
2018-07-28T22:05:36.213Z,2.23
2018-07-28T22:08:05.299Z,2.17
2018-07-28T22:10:33.765Z,1.97
2018-07-28T22:13:02.228Z,2.00
2018-07-28T22:15:30.721Z,1.90
2018-07-28T22:17:59.265Z,1.77
2018-07-28T22:20:27.731Z,2.40
2018-07-28T22:22:56.226Z,2.03
2018-07-28T22:25:24.722Z,2.33
2018-07-28T22:27:53.202Z,2.10
2018-07-28T22:30:21.715Z,1.87
2018-07-28T22:32:50.142Z,2.00
2018-07-28T22:35:18.586Z,2.03
2018-07-28T22:37:47.034Z,2.00
2018-07-28T22:40:15.463Z,2.27
2018-07-28T22:42:49.060Z,2.27
2018-07-28T22:45:18.650Z,1.90
2018-07-28T22:47:47.662Z,2.00
2018-07-28T22:50:16.849Z,2.00
2018-07-28T22:52:45.744Z,2.10
2018-07-28T22:55:14.199Z,2.00
2018-07-28T22:57:42.696Z,2.00
2018-07-28T23:00:11.204Z,2.23
2018-07-28T23:02:39.642Z,2.47
2018-07-28T23:05:08.786Z,2.10
2018-07-28T23:07:37.334Z,2.10
2018-07-28T23:10:06.052Z,2.27
2018-07-28T23:12:34.578Z,2.37
2018-07-28T23:15:03.200Z,2.00
2018-07-28T23:17:31.675Z,2.13
2018-07-28T23:20:00.289Z,2.10
2018-07-28T23:22:29.062Z,2.40
2018-07-28T23:24:57.510Z,1.93
2018-07-28T23:27:25.955Z,1.90
2018-07-28T23:29:54.393Z,2.03
2018-07-28T23:32:22.859Z,2.17
2018-07-28T23:34:51.306Z,2.17
2018-07-28T23:37:19.787Z,2.47
2018-07-28T23:39:48.231Z,2.20
2018-07-28T23:42:16.827Z,2.40
2018-07-28T23:44:45.625Z,2.60
2018-07-28T23:47:14.121Z,2.80
2018-07-28T23:49:42.686Z,2.63
2018-07-28T23:52:11.185Z,3.17
2018-07-28T23:54:39.792Z,2.53
2018-07-28T23:57:08.211Z,2.57
2018-07-28T23:59:36.701Z,2.53
